Time;durP1;ratioP1;P1;durP2;ratioP2;P2;SDS_P1;SDS_P2;PMS_P1;PMS_P2;Temp;Humidity;BMP_temperature;BMP_pressure;BME280_temperature;BME280_humidity;BME280_pressure;Samples;Min_cycle;Max_cycle;Signal;HPM_P1;HPM_P2
2024/04/16 00:00:10;;;;;;;13.45;5.75;;;3.80;99.90;;;;;;5358400;26;20006;-65
2024/04/16 00:02:56;;;;;;;14.95;5.60;;;3.80;99.90;;;;;;5356651;26;19996;-65
2024/04/16 00:05:42;;;;;;;9.68;5.53;;;3.80;99.90;;;;;;5345789;26;20009;-65
2024/04/16 00:08:28;;;;;;;13.88;5.55;;;3.80;99.90;;;;;;5353868;26;20000;-65
2024/04/16 00:11:13;;;;;;;13.27;5.10;;;3.90;99.90;;;;;;5351303;26;19996;-65
2024/04/16 00:13:59;;;;;;;11.35;5.75;;;3.90;99.90;;;;;;5346614;26;20001;-65
2024/04/16 00:16:45;;;;;;;12.20;5.95;;;3.90;99.90;;;;;;5353674;26;20446;-65
2024/04/16 00:19:31;;;;;;;13.43;5.40;;;3.90;99.90;;;;;;5338256;26;20011;-65
2024/04/16 00:22:17;;;;;;;11.68;5.28;;;3.90;99.90;;;;;;5335835;26;20047;-65
2024/04/16 00:25:03;;;;;;;16.38;6.70;;;3.80;99.90;;;;;;5339334;26;20016;-65
2024/04/16 00:27:49;;;;;;;12.85;5.32;;;3.80;99.90;;;;;;5334416;26;20087;-65
2024/04/16 00:30:35;;;;;;;15.13;5.40;;;3.80;99.90;;;;;;5325699;26;20766;-65
2024/04/16 00:33:21;;;;;;;11.50;5.35;;;3.90;99.90;;;;;;5336517;26;19996;-65
2024/04/16 00:36:07;;;;;;;15.63;6.03;;;3.90;99.90;;;;;;5333751;26;20012;-65
2024/04/16 00:38:53;;;;;;;14.90;6.05;;;3.90;99.90;;;;;;5336655;26;20810;-65
2024/04/16 00:41:39;;;;;;;9.75;5.15;;;3.90;99.90;;;;;;5333207;26;20028;-65
2024/04/16 00:44:27;;;;;;;9.77;4.72;;;3.90;99.90;;;;;;5326857;26;20221;-65
2024/04/16 00:47:16;;;;;;;15.00;5.05;;;3.90;99.90;;;;;;5339774;26;20016;-65
2024/04/16 00:50:04;;;;;;;9.35;4.70;;;3.90;99.90;;;;;;5332200;26;20050;-65
2024/04/16 00:52:49;;;;;;;10.57;5.20;;;3.80;99.90;;;;;;5335642;26;19997;-65
2024/04/16 00:55:36;;;;;;;9.87;4.10;;;3.80;99.90;;;;;;5322065;26;19997;-65
2024/04/16 00:58:22;;;;;;;10.52;4.55;;;3.90;99.90;;;;;;5331334;26;20008;-65
2024/04/16 01:01:08;;;;;;;9.23;4.70;;;3.90;99.90;;;;;;5334176;26;19993;-65
2024/04/16 01:03:56;;;;;;;11.18;4.45;;;3.90;99.90;;;;;;5328873;26;20088;-65
2024/04/16 01:06:42;;;;;;;17.42;4.78;;;3.90;99.90;;;;;;5334645;26;20084;-65
2024/04/16 01:09:28;;;;;;;11.88;4.68;;;4.00;99.90;;;;;;5330687;26;20335;-65
2024/04/16 01:12:14;;;;;;;16.33;5.30;;;3.90;99.90;;;;;;5337154;26;20001;-65
2024/04/16 01:15:00;;;;;;;13.80;5.47;;;3.90;99.90;;;;;;5336369;26;20048;-65
2024/04/16 01:17:47;;;;;;;9.60;4.03;;;3.90;99.90;;;;;;5334701;26;20009;-65
2024/04/16 01:20:34;;;;;;;9.10;4.38;;;4.00;99.90;;;;;;5334552;26;20067;-65
2024/04/16 01:23:19;;;;;;;;;;;3.90;99.90;;;;;;5330674;26;20089;-65
2024/04/16 01:26:05;;;;;;;10.90;3.75;;;3.80;99.90;;;;;;5341656;26;19938;-65
2024/04/16 01:28:51;;;;;;;17.07;4.50;;;3.80;99.90;;;;;;5327759;26;20012;-65
2024/04/16 01:31:37;;;;;;;12.65;4.97;;;3.80;99.90;;;;;;5336480;26;20041;-65
2024/04/16 01:34:23;;;;;;;13.70;4.68;;;3.80;99.90;;;;;;5330223;26;20032;-65
2024/04/16 01:37:09;;;;;;;10.82;3.95;;;3.70;99.90;;;;;;5339549;26;20779;-65
2024/04/16 01:39:54;;;;;;;10.05;4.30;;;3.70;99.90;;;;;;5328039;26;20013;-65
2024/04/16 01:42:40;;;;;;;14.45;4.45;;;3.70;99.90;;;;;;5338449;26;20502;-65
2024/04/16 01:45:26;;;;;;;18.77;5.15;;;3.70;99.90;;;;;;5332783;26;20009;-65
2024/04/16 01:48:12;;;;;;;14.98;4.25;;;3.70;99.90;;;;;;5332081;26;19996;-65
2024/04/16 01:50:58;;;;;;;12.50;4.13;;;3.70;99.90;;;;;;5338494;26;20000;-65
2024/04/16 01:53:44;;;;;;;9.23;4.50;;;3.70;99.90;;;;;;5327246;26;20098;-65
2024/04/16 01:56:30;;;;;;;13.77;4.75;;;3.70;99.90;;;;;;5327490;26;20008;-65
2024/04/16 01:59:15;;;;;;;16.25;4.72;;;3.60;99.90;;;;;;5338658;26;20008;-65
2024/04/16 02:02:02;;;;;;;14.80;4.20;;;3.60;99.90;;;;;;5338963;26;20080;-65
2024/04/16 02:04:48;;;;;;;13.30;4.78;;;3.60;99.90;;;;;;5332235;26;20005;-65
2024/04/16 02:07:34;;;;;;;12.73;4.30;;;3.60;99.90;;;;;;5322904;26;19997;-65
2024/04/16 02:10:20;;;;;;;15.20;4.13;;;3.60;99.90;;;;;;5328703;26;20008;-65
2024/04/16 02:13:06;;;;;;;9.33;4.17;;;3.60;99.90;;;;;;5334292;26;20594;-65
2024/04/16 02:15:52;;;;;;;15.80;4.10;;;3.60;99.90;;;;;;5328260;26;20001;-66
2024/04/16 02:18:38;;;;;;;13.35;4.80;;;3.60;99.90;;;;;;5333026;26;20017;-65
2024/04/16 02:21:24;;;;;;;15.85;4.07;;;3.50;99.90;;;;;;5328430;26;20037;-65
2024/04/16 02:24:09;;;;;;;12.70;4.20;;;3.40;99.90;;;;;;5331119;26;20988;-65
2024/04/16 02:26:55;;;;;;;12.60;4.20;;;3.50;99.90;;;;;;5328904;26;20020;-65
2024/04/16 02:29:41;;;;;;;24.75;4.15;;;3.40;99.90;;;;;;5326736;26;19997;-65
2024/04/16 02:32:27;;;;;;;12.50;4.57;;;3.40;99.90;;;;;;5357355;26;20461;-65
2024/04/16 02:35:13;;;;;;;13.90;4.00;;;3.40;99.90;;;;;;5361551;26;20380;-65
2024/04/16 02:37:59;;;;;;;19.43;4.40;;;3.40;99.90;;;;;;5362734;26;20016;-65
2024/04/16 02:40:45;;;;;;;12.35;3.78;;;3.30;99.90;;;;;;5359916;26;20014;-65
2024/04/16 02:43:31;;;;;;;11.63;4.85;;;3.30;99.90;;;;;;5366231;26;20001;-65
2024/04/16 02:46:16;;;;;;;16.02;4.68;;;3.30;99.90;;;;;;5362311;26;20883;-64
2024/04/16 02:49:02;;;;;;;16.38;4.28;;;3.30;99.90;;;;;;5360841;26;20007;-65
2024/04/16 02:51:48;;;;;;;13.27;4.22;;;3.30;99.90;;;;;;5358096;26;20016;-65
2024/04/16 02:54:34;;;;;;;10.93;4.10;;;3.30;99.90;;;;;;5354063;26;20000;-65
2024/04/16 02:57:20;;;;;;;8.80;3.88;;;3.20;99.90;;;;;;5354160;26;20063;-65
2024/04/16 03:00:07;;;;;;;10.48;3.53;;;3.20;99.90;;;;;;5361609;26;20077;-65
2024/04/16 03:02:52;;;;;;;11.32;4.60;;;3.30;99.90;;;;;;5364528;26;20013;-65
2024/04/16 03:05:38;;;;;;;11.93;4.55;;;3.40;99.90;;;;;;5364583;26;20076;-65
2024/04/16 03:08:24;;;;;;;13.02;3.28;;;3.40;99.90;;;;;;5353156;26;19997;-65
2024/04/16 03:11:10;;;;;;;7.78;3.40;;;3.40;99.90;;;;;;5363291;26;19996;-65
2024/04/16 03:13:56;;;;;;;11.43;4.87;;;3.40;99.90;;;;;;5350770;26;19996;-65
2024/04/16 03:16:42;;;;;;;13.90;5.03;;;3.40;99.90;;;;;;5367334;26;19996;-65
2024/04/16 03:19:29;;;;;;;13.05;5.22;;;3.50;99.90;;;;;;5362146;26;20026;-65
2024/04/16 03:22:15;;;;;;;11.55;5.07;;;3.40;99.90;;;;;;5364905;26;20000;-65
2024/04/16 03:25:01;;;;;;;13.57;4.50;;;3.40;99.90;;;;;;5364821;26;20150;-65
2024/04/16 03:27:47;;;;;;;11.85;4.63;;;3.40;99.90;;;;;;5355725;26;20340;-65
2024/04/16 03:30:33;;;;;;;9.35;5.13;;;3.40;99.90;;;;;;5358579;26;20073;-65
2024/04/16 03:33:19;;;;;;;11.60;4.83;;;3.40;99.90;;;;;;5368592;26;20060;-65
2024/04/16 03:36:05;;;;;;;9.38;5.55;;;3.40;99.90;;;;;;5369074;26;20371;-65
2024/04/16 03:38:51;;;;;;;14.65;4.43;;;3.40;99.90;;;;;;5364317;26;20578;-65
2024/04/16 03:41:37;;;;;;;14.00;4.85;;;3.30;99.90;;;;;;5371763;26;20011;-65
2024/04/16 03:44:23;;;;;;;18.07;4.70;;;3.20;99.90;;;;;;5357866;26;20031;-65
2024/04/16 03:47:09;;;;;;;11.45;4.47;;;3.20;99.90;;;;;;5366439;26;20012;-65
2024/04/16 03:49:55;;;;;;;13.30;4.17;;;3.10;99.90;;;;;;5351826;26;20012;-65
2024/04/16 03:52:40;;;;;;;14.40;4.70;;;3.20;99.90;;;;;;5365533;26;19997;-65
2024/04/16 03:55:26;;;;;;;14.65;4.97;;;3.20;99.90;;;;;;5361739;26;19992;-65
2024/04/16 03:58:13;;;;;;;11.82;4.55;;;3.20;99.90;;;;;;5366598;26;20001;-65
2024/04/16 04:01:07;;;;;;;;;;;3.30;99.90;;;;;;5371459;26;20077;-65
2024/04/16 04:03:53;;;;;;;11.57;4.53;;;3.30;99.90;;;;;;5367614;26;19926;-65
2024/04/16 04:06:39;;;;;;;12.40;5.05;;;3.40;99.90;;;;;;5369664;26;19992;-65
2024/04/16 04:09:25;;;;;;;12.93;4.07;;;3.40;99.90;;;;;;5371212;26;20007;-65
2024/04/16 04:12:10;;;;;;;10.25;4.40;;;3.40;99.90;;;;;;5374372;26;20513;-65
2024/04/16 04:14:56;;;;;;;17.88;4.68;;;3.40;99.90;;;;;;5365426;26;20027;-65
2024/04/16 04:17:42;;;;;;;6.15;3.70;;;3.50;99.90;;;;;;5371915;26;20011;-65
2024/04/16 04:20:28;;;;;;;15.77;4.78;;;3.50;99.90;;;;;;5367761;26;20022;-65
2024/04/16 04:23:14;;;;;;;14.88;5.32;;;3.40;99.90;;;;;;5368930;26;20722;-65
2024/04/16 04:26:00;;;;;;;8.18;3.60;;;3.50;99.90;;;;;;5373302;26;20055;-65
2024/04/16 04:28:46;;;;;;;15.35;3.97;;;3.50;99.90;;;;;;5368861;26;20040;-65
2024/04/16 04:31:32;;;;;;;9.18;3.38;;;3.40;99.90;;;;;;5363981;26;20720;-66
2024/04/16 04:34:17;;;;;;;12.60;4.00;;;3.40;99.90;;;;;;5365295;26;20008;-65
2024/04/16 04:37:03;;;;;;;18.42;4.13;;;3.40;99.90;;;;;;5379554;26;20028;-66
2024/04/16 04:39:49;;;;;;;11.80;3.67;;;3.50;99.90;;;;;;5368204;26;20165;-65
2024/04/16 04:42:35;;;;;;;10.45;3.45;;;3.50;99.90;;;;;;5363969;26;20028;-65
2024/04/16 04:45:21;;;;;;;10.83;3.90;;;3.50;99.90;;;;;;5365202;26;20449;-65
2024/04/16 04:48:07;;;;;;;12.37;4.70;;;3.50;99.90;;;;;;5368814;26;20222;-65
2024/04/16 04:50:53;;;;;;;10.27;3.65;;;3.60;99.90;;;;;;5368070;26;20011;-65
2024/04/16 04:53:39;;;;;;;11.88;3.17;;;3.60;99.90;;;;;;5361356;26;20599;-65
2024/04/16 04:56:25;;;;;;;8.93;3.40;;;3.50;99.90;;;;;;5364673;26;20000;-65
2024/04/16 04:59:10;;;;;;;9.53;3.67;;;3.60;99.90;;;;;;5369191;26;20015;-65
2024/04/16 05:01:56;;;;;;;7.65;3.30;;;3.80;99.90;;;;;;5371361;26;20000;-65
2024/04/16 05:04:42;;;;;;;10.25;2.90;;;3.80;99.90;;;;;;5360450;26;20004;-64
2024/04/16 05:07:28;;;;;;;8.10;2.63;;;3.70;99.90;;;;;;5363162;26;20027;-65
2024/04/16 05:10:14;;;;;;;6.20;2.70;;;3.70;99.90;;;;;;5361865;26;20065;-65
2024/04/16 05:13:00;;;;;;;9.30;3.38;;;3.60;99.90;;;;;;5370598;26;20000;-65
2024/04/16 05:15:45;;;;;;;7.40;2.72;;;3.60;99.90;;;;;;5364127;26;20000;-65
2024/04/16 05:18:31;;;;;;;6.15;2.70;;;3.70;99.90;;;;;;5366162;26;20012;-65
2024/04/16 05:21:17;;;;;;;7.45;2.63;;;3.70;99.90;;;;;;5362366;26;20029;-65
2024/04/16 05:24:03;;;;;;;4.97;2.00;;;3.70;99.90;;;;;;5371649;26;20000;-65
2024/04/16 05:26:49;;;;;;;5.43;1.80;;;4.30;99.90;;;;;;5372105;26;20277;-65
2024/04/16 05:29:35;;;;;;;4.30;1.85;;;4.20;99.90;;;;;;5365366;26;20023;-65
2024/04/16 05:32:21;;;;;;;2.67;1.83;;;4.00;99.90;;;;;;5367591;26;20000;-65
2024/04/16 05:35:07;;;;;;;3.50;2.38;;;3.90;99.90;;;;;;5358770;26;20069;-65
2024/04/16 05:37:53;;;;;;;2.88;1.85;;;3.80;99.90;;;;;;5370132;26;19997;-65
2024/04/16 05:40:39;;;;;;;3.60;1.90;;;3.80;99.90;;;;;;5367314;26;20473;-65
2024/04/16 05:43:24;;;;;;;7.15;2.58;;;3.80;99.90;;;;;;5366058;26;19996;-65
2024/04/16 05:46:11;;;;;;;6.53;2.50;;;3.80;99.90;;;;;;5368090;26;20818;-65
2024/04/16 05:48:58;;;;;;;6.68;3.58;;;3.90;99.90;;;;;;5369030;26;20714;-65
2024/04/16 05:51:44;;;;;;;4.47;2.67;;;3.90;99.90;;;;;;5367999;26;20001;-65
2024/04/16 05:54:32;;;;;;;8.43;3.43;;;3.90;99.90;;;;;;5362202;26;20215;-64
2024/04/16 05:57:17;;;;;;;11.63;3.38;;;3.70;99.90;;;;;;5371642;26;19999;-65
2024/04/16 06:00:05;;;;;;;8.25;3.22;;;3.70;99.90;;;;;;5364928;26;19996;-65
2024/04/16 06:02:50;;;;;;;6.07;2.78;;;3.70;99.90;;;;;;5335982;26;20011;-64
2024/04/16 06:05:36;;;;;;;6.00;2.88;;;3.80;99.90;;;;;;5326385;26;20486;-65
2024/04/16 06:08:22;;;;;;;6.43;2.60;;;3.80;99.90;;;;;;5332175;26;20462;-65
2024/04/16 06:11:08;;;;;;;5.63;2.57;;;3.70;99.90;;;;;;5333629;26;20720;-65
2024/04/16 06:13:54;;;;;;;4.03;2.15;;;3.90;99.90;;;;;;5323698;26;21011;-65
2024/04/16 06:16:40;;;;;;;5.38;1.92;;;4.70;99.90;;;;;;5332646;26;19997;-66
2024/04/16 06:19:26;;;;;;;2.65;1.38;;;5.10;99.90;;;;;;5328224;26;19993;-66
2024/04/16 06:22:12;;;;;;;3.03;1.40;;;5.30;99.90;;;;;;5337117;26;20436;-66
2024/04/16 06:24:58;;;;;;;3.13;1.75;;;5.10;99.90;;;;;;5325737;26;20013;-66
2024/04/16 06:27:46;;;;;;;2.05;1.42;;;4.90;99.90;;;;;;5336289;26;20433;-66
2024/04/16 06:30:32;;;;;;;2.78;1.60;;;4.90;99.90;;;;;;5327248;26;20004;-67
2024/04/16 06:33:18;;;;;;;4.60;1.77;;;4.70;99.90;;;;;;5325380;26;20016;-67
2024/04/16 06:36:05;;;;;;;2.37;1.33;;;4.70;99.90;;;;;;5329708;26;20015;-67
2024/04/16 06:38:50;;;;;;;5.50;1.27;;;4.60;99.90;;;;;;5327648;26;20004;-67
2024/04/16 06:41:36;;;;;;;3.35;1.42;;;4.80;99.90;;;;;;5334700;26;20016;-68
2024/04/16 06:44:22;;;;;;;2.65;1.33;;;5.10;99.90;;;;;;5327481;26;20005;-66
2024/04/16 06:47:08;;;;;;;2.67;1.17;;;5.20;99.90;;;;;;5329191;26;20351;-65
2024/04/16 06:49:54;;;;;;;1.98;1.20;;;5.50;99.90;;;;;;5331458;26;19997;-65
2024/04/16 06:52:40;;;;;;;5.97;1.25;;;5.90;99.90;;;;;;5336522;26;20097;-65
2024/04/16 06:55:25;;;;;;;5.75;1.90;;;6.30;99.90;;;;;;5320876;26;19997;-66
2024/04/16 06:58:11;;;;;;;4.43;1.70;;;6.20;99.90;;;;;;5328495;26;20326;-68
2024/04/16 07:00:57;;;;;;;3.70;1.38;;;6.00;99.90;;;;;;5335539;26;20038;-66
2024/04/16 07:03:43;;;;;;;3.50;1.27;;;6.00;99.90;;;;;;5326364;26;20009;-67
2024/04/16 07:06:29;;;;;;;2.33;0.98;;;6.00;99.90;;;;;;5336911;26;20001;-66
2024/04/16 07:09:15;;;;;;;3.60;1.10;;;5.90;99.90;;;;;;5337734;26;20008;-66
2024/04/16 07:12:00;;;;;;;1.50;0.88;;;5.80;99.90;;;;;;5332866;26;19996;-66
2024/04/16 07:14:46;;;;;;;2.40;0.98;;;5.70;99.90;;;;;;5325132;26;20066;-65
2024/04/16 07:17:32;;;;;;;4.90;1.38;;;5.50;99.90;;;;;;5330105;26;20015;-66
2024/04/16 07:20:18;;;;;;;2.85;1.00;;;5.60;99.90;;;;;;5325447;26;20012;-66
2024/04/16 07:23:04;;;;;;;1.55;0.93;;;5.60;99.90;;;;;;5332322;26;20013;-66
2024/04/16 07:25:50;;;;;;;5.43;1.40;;;5.60;99.90;;;;;;5337738;26;20004;-66
2024/04/16 07:28:36;;;;;;;2.55;1.17;;;5.50;99.90;;;;;;5335073;26;20001;-67
2024/04/16 07:31:22;;;;;;;3.03;1.48;;;5.50;99.90;;;;;;5353117;26;20693;-65
2024/04/16 07:34:08;;;;;;;9.05;1.73;;;5.30;99.90;;;;;;5330011;26;20001;-66
2024/04/16 07:36:54;;;;;;;5.15;1.55;;;5.40;99.90;;;;;;5339191;26;20105;-65
2024/04/16 07:39:40;;;;;;;2.85;1.13;;;5.40;99.90;;;;;;5335573;26;20405;-65
2024/04/16 07:42:26;;;;;;;2.20;1.03;;;5.60;99.90;;;;;;5325849;26;20001;-65
2024/04/16 07:45:11;;;;;;;7.73;1.47;;;5.40;99.90;;;;;;5328351;26;20017;-66
2024/04/16 07:47:57;;;;;;;5.20;1.40;;;5.50;99.90;;;;;;5340226;26;20036;-66
2024/04/16 07:50:43;;;;;;;4.20;1.35;;;5.60;99.90;;;;;;5326685;26;20509;-67
2024/04/16 07:53:30;;;;;;;9.88;1.80;;;5.60;99.90;;;;;;5329873;26;19997;-67
2024/04/16 07:56:16;;;;;;;2.83;1.37;;;5.60;99.90;;;;;;5331218;26;19993;-67
2024/04/16 07:59:02;;;;;;;4.82;1.70;;;5.50;99.90;;;;;;5332096;26;20223;-67
2024/04/16 08:01:48;;;;;;;3.63;1.55;;;5.40;99.90;;;;;;5325557;26;20001;-67
2024/04/16 08:04:33;;;;;;;2.70;1.25;;;5.30;99.90;;;;;;5329864;26;20280;-66
2024/04/16 08:07:19;;;;;;;2.10;0.98;;;5.40;99.90;;;;;;5354177;26;20008;-67
2024/04/16 08:10:05;;;;;;;4.20;1.10;;;5.20;99.90;;;;;;5340264;26;20604;-67
2024/04/16 08:12:51;;;;;;;4.30;0.90;;;5.10;99.90;;;;;;5331651;26;20008;-67
2024/04/16 08:15:37;;;;;;;3.17;1.15;;;5.00;99.90;;;;;;5326143;26;19997;-67
2024/04/16 08:18:23;;;;;;;1.30;0.70;;;4.90;99.90;;;;;;5333661;26;20016;-67
2024/04/16 08:21:09;;;;;;;4.22;0.85;;;4.80;99.90;;;;;;5327320;26;20025;-66
2024/04/16 08:23:55;;;;;;;1.15;0.60;;;4.70;99.90;;;;;;5327158;26;20026;-66
2024/04/16 08:26:40;;;;;;;3.23;0.87;;;4.50;99.90;;;;;;5334811;26;20362;-66
2024/04/16 08:29:26;;;;;;;5.90;0.60;;;4.40;99.90;;;;;;5321348;26;20274;-66
2024/04/16 08:32:12;;;;;;;1.38;0.50;;;4.30;99.90;;;;;;5331992;26;20019;-67
2024/04/16 08:34:58;;;;;;;1.55;0.40;;;4.10;99.90;;;;;;5330221;26;20037;-67
2024/04/16 08:37:44;;;;;;;1.67;0.50;;;4.10;99.90;;;;;;5331472;26;20005;-67
2024/04/16 08:40:29;;;;;;;1.15;0.40;;;3.90;99.90;;;;;;5327322;26;20001;-67
2024/04/16 08:43:15;;;;;;;1.08;0.43;;;3.80;99.90;;;;;;5329081;26;20005;-67
2024/04/16 08:46:03;;;;;;;0.93;0.45;;;3.60;99.90;;;;;;5331751;26;20012;-67
2024/04/16 08:48:48;;;;;;;0.40;0.40;;;3.50;99.90;;;;;;5334431;26;20362;-67
2024/04/16 08:51:36;;;;;;;2.00;0.38;;;3.60;99.90;;;;;;5323274;26;20005;-63
2024/04/16 08:54:23;;;;;;;0.80;0.28;;;3.60;99.90;;;;;;5330733;26;20011;-65
2024/04/16 08:57:09;;;;;;;0.30;0.20;;;3.70;99.90;;;;;;5333286;26;20001;-64
2024/04/16 08:59:55;;;;;;;0.28;0.20;;;3.70;99.90;;;;;;5326631;26;20078;-64
2024/04/16 09:02:41;;;;;;;0.22;0.20;;;3.60;99.90;;;;;;5322817;26;20006;-64
2024/04/16 09:05:27;;;;;;;1.17;0.40;;;3.60;99.90;;;;;;5327010;26;20016;-63
2024/04/16 09:08:13;;;;;;;0.30;0.30;;;3.50;99.90;;;;;;5329110;26;20083;-63
2024/04/16 09:10:59;;;;;;;0.25;0.25;;;3.40;99.90;;;;;;5331309;26;20408;-63
2024/04/16 09:13:45;;;;;;;0.93;0.40;;;3.40;99.90;;;;;;5323621;26;20408;-64
2024/04/16 09:16:31;;;;;;;0.20;0.20;;;3.40;99.90;;;;;;5332840;26;20001;-65
2024/04/16 09:19:18;;;;;;;2.38;0.20;;;3.30;99.90;;;;;;5329264;26;20029;-65
2024/04/16 09:22:04;;;;;;;1.10;0.20;;;3.30;99.90;;;;;;5325502;26;20001;-65
2024/04/16 09:24:50;;;;;;;0.10;0.10;;;3.30;99.90;;;;;;5308423;26;20015;-65
2024/04/16 09:27:36;;;;;;;0.28;0.20;;;3.30;99.90;;;;;;5331725;26;20015;-65
2024/04/16 09:30:22;;;;;;;1.80;0.10;;;3.40;99.90;;;;;;5324237;26;20652;-66
2024/04/16 09:33:09;;;;;;;1.05;0.57;;;3.40;99.90;;;;;;5325609;26;20013;-63
2024/04/16 09:35:55;;;;;;;0.20;0.20;;;3.50;99.90;;;;;;5335844;26;20008;-64
2024/04/16 09:38:41;;;;;;;0.30;0.10;;;3.40;99.90;;;;;;5331551;26;20127;-62
2024/04/16 09:41:28;;;;;;;0.38;0.25;;;3.40;99.90;;;;;;5334779;26;20008;-65
2024/04/16 09:44:18;;;;;;;0.20;0.20;;;3.30;99.90;;;;;;5330452;26;20438;-65
2024/04/16 09:47:05;;;;;;;0.10;0.10;;;3.20;99.90;;;;;;5326957;26;20033;-66
2024/04/16 09:49:54;;;;;;;;;;;3.00;99.90;;;;;;5327437;26;20021;-66
2024/04/16 09:52:39;;;;;;;0.55;0.20;;;3.00;99.90;;;;;;5332850;26;19934;-64
2024/04/16 09:55:28;;;;;;;0.57;0.20;;;3.00;99.90;;;;;;5315002;26;20351;-65
2024/04/16 09:58:17;;;;;;;0.30;0.20;;;3.00;99.90;;;;;;5331938;26;20012;-66
2024/04/16 10:01:03;;;;;;;0.20;0.10;;;3.00;99.90;;;;;;5328897;26;20357;-65
2024/04/16 10:03:51;;;;;;;;;;;3.10;99.90;;;;;;5328321;26;20023;-65
2024/04/16 10:06:37;;;;;;;0.32;0.20;;;3.40;99.90;;;;;;5332791;26;19932;-65
2024/04/16 10:09:24;;;;;;;0.10;0.10;;;3.60;99.90;;;;;;5326410;26;20056;-65
2024/04/16 10:12:10;;;;;;;0.52;0.15;;;3.80;99.90;;;;;;5335027;26;20015;-64
2024/04/16 10:14:56;;;;;;;;;;;3.70;99.90;;;;;;5328350;26;20023;-65
2024/04/16 10:17:52;;;;;;;0.28;0.15;;;3.80;99.90;;;;;;5328456;26;19926;-64
2024/04/16 10:20:48;;;;;;;0.20;0.17;;;3.90;99.90;;;;;;5327057;26;20392;-65
2024/04/16 10:23:39;;;;;;;2.20;0.20;;;3.80;99.90;;;;;;5331803;26;20008;-65
2024/04/16 10:26:26;;;;;;;0.65;0.20;;;3.60;99.90;;;;;;5329759;26;20082;-64
2024/04/16 10:29:13;;;;;;;;;;;3.50;99.90;;;;;;5328529;26;20184;-64
2024/04/16 10:32:01;;;;;;;0.30;0.30;;;3.60;99.90;;;;;;5336966;26;19934;-65
2024/04/16 10:34:47;;;;;;;0.65;0.20;;;3.70;99.90;;;;;;5321007;26;20023;-64
2024/04/16 10:37:34;;;;;;;1.27;0.47;;;3.90;99.90;;;;;;5328303;26;20083;-65
2024/04/16 10:40:29;;;;;;;0.73;0.30;;;4.30;99.90;;;;;;5331520;26;20741;-65
2024/04/16 10:43:21;;;;;;;0.43;0.40;;;4.50;99.90;;;;;;5330196;26;19997;-65
2024/04/16 10:46:07;;;;;;;0.40;0.30;;;4.40;99.90;;;;;;5337468;26;20019;-65
2024/04/16 10:48:55;;;;;;;1.33;0.50;;;4.40;99.90;;;;;;5327957;26;20001;-65
2024/04/16 10:51:41;;;;;;;0.52;0.30;;;4.70;99.90;;;;;;5326920;26;20000;-65
2024/04/16 10:54:27;;;;;;;0.47;0.20;;;4.70;99.90;;;;;;5328160;26;20033;-64
2024/04/16 10:57:13;;;;;;;0.98;0.40;;;4.60;99.90;;;;;;5327803;26;20079;-64
2024/04/16 10:59:59;;;;;;;0.32;0.20;;;4.50;99.90;;;;;;5333944;26;20072;-64
2024/04/16 11:02:46;;;;;;;0.70;0.40;;;4.50;99.90;;;;;;5326722;26;20001;-64
2024/04/16 11:05:32;;;;;;;0.47;0.22;;;4.40;99.90;;;;;;5329205;26;20272;-65
2024/04/16 11:08:17;;;;;;;0.55;0.22;;;4.30;99.90;;;;;;5323239;26;20475;-64
2024/04/16 11:11:04;;;;;;;0.52;0.50;;;4.30;99.90;;;;;;5324033;26;20000;-65
2024/04/16 11:13:50;;;;;;;;;;;4.30;99.90;;;;;;5325205;26;20005;-64
2024/04/16 11:16:36;;;;;;;0.77;0.40;;;4.30;99.90;;;;;;5335132;26;19934;-64
2024/04/16 11:19:22;;;;;;;2.87;0.60;;;4.20;99.90;;;;;;5323367;26;20002;-65
2024/04/16 11:22:08;;;;;;;4.40;0.60;;;4.30;99.90;;;;;;5336572;26;20104;-65
2024/04/16 11:24:54;;;;;;;1.77;1.20;;;4.40;99.90;;;;;;5331119;26;20289;-65
2024/04/16 11:27:40;;;;;;;2.75;1.13;;;4.40;99.90;;;;;;5331058;26;20009;-64
2024/04/16 11:30:26;;;;;;;5.43;1.10;;;4.40;99.90;;;;;;5328920;26;19993;-63
2024/04/16 11:33:12;;;;;;;1.00;0.80;;;4.50;99.90;;;;;;5325790;26;20012;-64
2024/04/16 11:36:04;;;;;;;1.83;0.63;;;4.40;99.90;;;;;;5333209;26;20590;-63
2024/04/16 11:38:52;;;;;;;1.02;0.50;;;4.20;99.90;;;;;;5318587;26;20049;-63
2024/04/16 11:41:38;;;;;;;1.85;0.47;;;3.90;99.90;;;;;;5323517;26;20041;-63
2024/04/16 11:44:25;;;;;;;1.00;0.57;;;3.80;99.90;;;;;;5329909;26;20012;-63
2024/04/16 11:47:11;;;;;;;1.13;0.60;;;3.80;99.90;;;;;;5326161;26;20082;-63
2024/04/16 11:49:58;;;;;;;1.67;0.80;;;3.90;99.90;;;;;;5325929;26;20016;-63
2024/04/16 11:52:44;;;;;;;1.33;0.90;;;4.10;99.90;;;;;;5325515;26;20004;-63
2024/04/16 11:55:30;;;;;;;1.85;1.02;;;4.20;99.90;;;;;;5348604;26;20001;-63
2024/04/16 11:58:16;;;;;;;4.10;1.58;;;4.30;99.90;;;;;;5334983;26;20052;-63
2024/04/16 12:01:02;;;;;;;1.48;0.90;;;4.30;99.90;;;;;;5333035;26;19997;-63
2024/04/16 12:03:48;;;;;;;1.37;0.80;;;4.30;99.90;;;;;;5326047;26;20002;-63
2024/04/16 12:06:34;;;;;;;1.70;1.17;;;4.30;99.90;;;;;;5321185;26;20029;-63
2024/04/16 12:09:20;;;;;;;2.20;1.27;;;4.40;99.90;;;;;;5330133;26;20791;-63
2024/04/16 12:12:06;;;;;;;2.20;1.70;;;4.40;99.90;;;;;;5328581;26;20015;-63
2024/04/16 12:14:52;;;;;;;2.60;1.30;;;4.60;99.90;;;;;;5318591;26;20008;-63
2024/04/16 12:17:38;;;;;;;3.05;1.50;;;5.00;99.90;;;;;;5332426;26;20087;-64
2024/04/16 12:20:24;;;;;;;2.83;1.40;;;5.40;99.90;;;;;;5315584;26;20323;-63
2024/04/16 12:23:10;;;;;;;2.00;1.33;;;5.70;99.90;;;;;;5330585;26;20271;-63
2024/04/16 12:25:55;;;;;;;2.20;1.52;;;5.80;99.90;;;;;;5326903;26;20009;-64
2024/04/16 12:28:44;;;;;;;5.85;1.77;;;5.80;99.90;;;;;;5331511;26;19993;-64
2024/04/16 12:31:30;;;;;;;3.65;2.22;;;5.80;99.90;;;;;;5337333;26;20634;-64
2024/04/16 12:34:16;;;;;;;3.78;2.03;;;5.70;99.90;;;;;;5332842;26;20095;-64
2024/04/16 12:37:02;;;;;;;3.85;2.70;;;5.90;99.90;;;;;;5328475;26;20012;-64
2024/04/16 12:39:47;;;;;;;4.88;2.85;;;6.30;99.90;;;;;;5328111;26;19997;-64
2024/04/16 12:42:33;;;;;;;2.92;2.35;;;6.60;99.90;;;;;;5329420;26;20015;-64
2024/04/16 12:45:19;;;;;;;3.10;2.47;;;6.70;99.90;;;;;;5326835;26;20016;-64
2024/04/16 12:48:06;;;;;;;5.20;2.85;;;6.60;99.90;;;;;;5322175;26;20023;-64
2024/04/16 12:50:55;;;;;;;3.63;2.47;;;6.60;99.90;;;;;;5326116;26;20079;-64
2024/04/16 12:53:41;;;;;;;2.97;2.58;;;6.60;99.90;;;;;;5323067;26;20595;-64
2024/04/16 12:56:27;;;;;;;9.10;3.40;;;6.80;99.90;;;;;;5322528;26;20009;-64
2024/04/16 12:59:13;;;;;;;3.78;2.97;;;6.70;99.90;;;;;;5334299;26;20013;-64
2024/04/16 13:01:59;;;;;;;3.77;2.93;;;6.90;99.90;;;;;;5330666;26;20535;-64
2024/04/16 13:04:46;;;;;;;3.53;2.83;;;6.90;99.90;;;;;;5318951;26;20012;-63
2024/04/16 13:07:32;;;;;;;;;;;6.70;99.90;;;;;;5331716;26;20001;-64
2024/04/16 13:10:18;;;;;;;5.45;2.60;;;6.40;99.90;;;;;;5328390;26;19993;-64
2024/04/16 13:13:04;;;;;;;3.95;3.20;;;6.30;99.90;;;;;;5313797;26;20001;-64
2024/04/16 13:15:50;;;;;;;2.80;2.47;;;6.10;99.90;;;;;;5335599;26;20016;-64
2024/04/16 13:18:35;;;;;;;3.10;2.35;;;6.00;99.90;;;;;;5326922;26;20559;-63
2024/04/16 13:21:21;;;;;;;2.83;2.30;;;5.90;99.90;;;;;;5326385;26;20001;-64
2024/04/16 13:24:07;;;;;;;3.63;2.70;;;5.70;99.90;;;;;;5332949;26;20527;-64
2024/04/16 13:26:53;;;;;;;3.40;2.70;;;5.70;99.90;;;;;;5328796;26;20015;-63
2024/04/16 13:29:39;;;;;;;2.78;2.30;;;5.50;99.90;;;;;;5326811;26;20044;-64
2024/04/16 13:32:25;;;;;;;4.15;2.50;;;5.50;99.90;;;;;;5338382;26;20000;-63
2024/04/16 13:35:11;;;;;;;3.45;2.50;;;5.50;99.90;;;;;;5326966;26;20099;-63
2024/04/16 13:37:57;;;;;;;3.15;2.50;;;5.60;99.90;;;;;;5332404;26;20017;-63
2024/04/16 13:40:43;;;;;;;3.30;2.13;;;5.60;99.90;;;;;;5318550;26;20455;-64
2024/04/16 13:43:29;;;;;;;2.47;1.73;;;5.60;99.90;;;;;;5325321;26;20005;-64
2024/04/16 13:46:14;;;;;;;3.45;2.50;;;5.50;99.90;;;;;;5322110;26;20482;-63
2024/04/16 13:49:00;;;;;;;3.08;2.05;;;5.40;99.90;;;;;;5316072;26;20362;-63
2024/04/16 13:51:46;;;;;;;2.30;1.67;;;5.30;99.90;;;;;;5326224;26;20001;-63
2024/04/16 13:54:32;;;;;;;3.00;2.10;;;5.40;99.90;;;;;;5329229;26;20012;-63
2024/04/16 13:57:18;;;;;;;3.03;2.30;;;5.50;99.90;;;;;;5335330;26;20090;-65
2024/04/16 14:00:04;;;;;;;2.33;1.63;;;5.60;99.90;;;;;;5323970;26;20009;-63
2024/04/16 14:02:50;;;;;;;2.20;1.63;;;5.50;99.90;;;;;;5309453;26;20005;-63
2024/04/16 14:05:36;;;;;;;2.53;1.85;;;5.40;99.90;;;;;;5310410;26;20011;-62
2024/04/16 14:08:22;;;;;;;3.60;2.20;;;5.40;99.90;;;;;;5333494;26;20490;-63
2024/04/16 14:11:08;;;;;;;3.10;2.05;;;5.40;99.90;;;;;;5342224;26;20633;-63
2024/04/16 14:13:54;;;;;;;4.83;3.13;;;5.50;99.90;;;;;;5337681;26;20034;-63
2024/04/16 14:16:41;;;;;;;3.55;2.55;;;5.50;99.90;;;;;;5330759;26;20239;-64
2024/04/16 14:19:27;;;;;;;4.45;3.30;;;5.70;99.90;;;;;;5335524;26;20026;-65
2024/04/16 14:22:13;;;;;;;5.57;4.30;;;5.70;99.90;;;;;;5328964;26;20004;-65
2024/04/16 14:24:58;;;;;;;6.28;4.70;;;5.70;99.90;;;;;;5324936;26;20009;-65
2024/04/16 14:27:44;;;;;;;7.07;4.38;;;5.70;99.90;;;;;;5333439;26;19996;-64
2024/04/16 14:30:30;;;;;;;5.28;4.18;;;5.50;99.90;;;;;;5319952;26;20001;-64
2024/04/16 14:33:16;;;;;;;6.28;4.65;;;5.50;99.90;;;;;;5336996;26;20001;-64